^^
LKKV - Karlovy Vary, Czech Republic
Entfernung von Station: O 36km
Aktualisierung: 14.10.2019 10:30
Klar
Klar
 Wind von veränderlich
Wind: veränderlich 4 km/h
Temperatur: 16°C
Taupunkt: 11°C
Luftfeuchte: 72%
Luftdruck: 1018 hPa
Zusammenfassung: Klar
Sicht: mehr als 10 km
2019/10/14 08:30 LKKV 140830Z VRB02KT CAVOK 16/11 Q1018
EDQM - Hof, Germany
Entfernung von Station: W 40km
Aktualisierung: 14.10.2019 10:20
Klar
Klar
 Wind von O
Wind: O 7 km/h
Temperatur: 15°C
Taupunkt: 12°C
Luftfeuchte: 82%
Luftdruck: 1018 hPa
Zusammenfassung: Klar
Sicht: mehr als 10 km
2019/10/14 08:20 EDQM 140820Z 09004KT CAVOK 15/12 Q1018
 
ETIC - Grafenwoehr, Germany
Entfernung von Station: SSW 72km
Aktualisierung: 14.10.2019 09:56
Klar
Klar
 Wind von calm
Wind: Windstill
Temperatur: 13°C
Taupunkt: 11°C
Luftfeuchte: 88%
Luftdruck: 1017.6 hPa
Wolken: Klar
Sicht: 10 km
2019/10/14 07:56 ETIC 140756Z AUTO 00000KT 9999 CLR 13/11 A3005 RMK AO2 SLP178 T01290113 $
EDAC - Altenburg-Nobitz, Germany
Entfernung von Station: N 80km
Aktualisierung: 14.10.2019 10:20
Klar
Klar
 Wind von SSW
Wind: SSW 7 km/h
Temperatur: 19°C
Taupunkt: 13°C
Luftfeuchte: 68%
Luftdruck: 1016 hPa
Zusammenfassung: Klar
Sicht: mehr als 10 km
2019/10/14 08:20 EDAC 140820Z 21004KT 180V240 CAVOK 19/13 Q1016
 
LKLN - Plzen Line, Czech Republic
Entfernung von Station: SO 88km
Aktualisierung: 14.10.2019 10:00
Klar
Klar
 Wind von veränderlich
Wind: veränderlich 4 km/h
Temperatur: 12°C
Taupunkt: 11°C
Luftfeuchte: 94%
Luftdruck: 1019 hPa
Zusammenfassung: Klar
Sicht: mehr als 10 km
2019/10/14 08:00 LKLN 140800Z AUTO VRB02KT CAVOK 12/11 Q1019
ETIH - Hohenfels (usa-A, Germany
Entfernung von Station: SSW 124km
Aktualisierung: 14.10.2019 09:56
Nebel, Klar
Nebel, Klar
 Wind von calm
Wind: Windstill
Temperatur: 13°C
Taupunkt: 13°C
Luftfeuchte: 100%
Luftdruck: 1018.6 hPa
Zusammenfassung: Nebel
Wolken: Klar
Sicht: 9 km
2019/10/14 07:56 ETIH 140756Z AUTO 00000KT 9000 BR CLR 13/13 A3008 RMK AO2 SLP188 T01280128 $
 
EDDE - Erfurt/Bindersleben, Germany
Entfernung von Station: NW 129km
Aktualisierung: 14.10.2019 10:20
Klar
Klar
 Wind von S
Wind: S 11 km/h
Temperatur: 19°C
Taupunkt: 13°C
Luftfeuchte: 68%
Luftdruck: 1016 hPa
Zusammenfassung: Klar
Sicht: mehr als 10 km
2019/10/14 08:20 EDDE 140820Z 18006KT CAVOK 19/13 Q1016 NOSIG
EDDP - Leipzig/Schkeudidtz, Germany
Entfernung von Station: N 129km
Aktualisierung: 14.10.2019 10:20
Klar
Klar
 Wind von S
Wind: S 15 km/h
Temperatur: 19°C
Taupunkt: 14°C
Luftfeuchte: 73%
Luftdruck: 1016 hPa
Zusammenfassung: Klar
Sicht: mehr als 10 km
2019/10/14 08:20 EDDP 140820Z 17008KT CAVOK 19/14 Q1016 NOSIG
 
EDDN - Nuernberg, Germany
Entfernung von Station: SW 130km
Aktualisierung: 14.10.2019 10:20
Klar
Klar
 Wind von SSO
Wind: SSO 7 km/h
Temperatur: 17°C
Taupunkt: 12°C
Luftfeuchte: 73%
Luftdruck: 1017 hPa
Zusammenfassung: Klar
Sicht: mehr als 10 km
2019/10/14 08:20 EDDN 140820Z 15004KT CAVOK 17/12 Q1017 NOSIG
LKPR - Prague/Ruzyne, Czech Republic
Entfernung von Station: O 133km
Aktualisierung: 14.10.2019 10:30
Klar
Klar
 Wind von veränderlich
Wind: veränderlich 4 km/h
Temperatur: 15°C
Taupunkt: 11°C
Luftfeuchte: 77%
Luftdruck: 1019 hPa
Zusammenfassung: Klar
Sicht: mehr als 10 km
2019/10/14 08:30 LKPR 140830Z VRB02KT CAVOK 15/11 Q1019 NOSIG
 
EDDC - Dresden/Klotzsche, Germany
Entfernung von Station: NO 134km
Aktualisierung: 14.10.2019 10:20
Klar
Klar
 Wind von SO
Wind: SO 11 km/h
Temperatur: 18°C
Taupunkt: 12°C
Luftfeuchte: 68%
Luftdruck: 1017 hPa
Zusammenfassung: Klar
Sicht: mehr als 10 km
2019/10/14 08:20 EDDC 140820Z 14006KT CAVOK 18/12 Q1017 NOSIG
Besucherstatistik
Besucher gesamt: 2.384.148
Besucher heute: 756
Besucher gestern: 1.953
gerade online: 31
Seitenaufrufe diese Seite: 4.688
counter Statistiken